Terminal Aerodrome Forecast
Issued by NWS

Home | Current Version | Previous Version | Text Only | Print | Product List | Glossary On
Versions: 1 2 3 4 5 6 7 8 9 10 11 12 13 14 15 16 17 18
133
FTUS43 KLSX 302339
TAFSUS
TAF
KSUS 302339Z 0100/0124 32007KT P6SM VCSH SCT020 BKN035
     FM010300 VRB04KT P6SM BKN015
     FM010700 VRB04KT P6SM BKN008
     FM011500 30006KT P6SM BKN015
     FM012100 30006KT P6SM BKN030=

USA.gov is the U.S. government's official web portal to all federal, state and local government web resources and services.